Tiempo atmosférico en la estación meteorológica de Alcala de Henares, Madrid (605 m.)



Fecha
DESCASC
Temp. máxima en grados centígrados (hora)
DESCASC
Temp. mínima en grados centígrados (hora)
DESCASC
Temp. media en grados centígrados
DESCASC
Racha de viento máxima en m/sg (hora)
DESCASC
Velocidad máxima media en intervalos de 10 minutos(hora)
DESCASC
Precipitaciones diarias en mm
DESCASC
Precipitaciones de 00:00 a 06:00 en mm
DESCASC
Precipitaciones de 06:00 a 12:00 en mm
DESCASC
Precipitaciones de 12:00 a 18:00 en mm
DESCASC
Precipitaciones de 18:00 a 24:00 en mm
DESCASC
28-02-2021 14.7 (16:30) 0.5 (06:40) 7.6 12.22 (20:20) 7.78 (20:20) 0 0 0 0 0
27-02-2021 20.4 (16:10) 2.4 (07:30) 11.4 5.83 (09:40) 3.89 (10:10) 0 0 0 0 0
26-02-2021 17.4 (15:10) 2.7 (07:50) 10 4.44 (11:00) 3.06 (10:40) 0 0 0 0 0
25-02-2021 14 (16:30) 2.9 (00:00) 8.5 5 (00:10) 3.33 (06:00) 0 0 0 0 0
24-02-2021 16.2 (15:00) 1.8 (00:00) 9 11.39 (20:50) 7.22 (20:50) 0 0 0 0 0
23-02-2021 15.5 (16:20) 1.2 (00:00) 8.4 5.83 (16:20) 3.89 (17:10) 0 0 0 0 0
22-02-2021 11.1 (16:40) 5.2 (00:00) 8.2 6.67 (12:20) 4.17 (12:10) 2.4 2.4 0 0 0
21-02-2021 12.3 (15:40) 6.6 (00:00) 9.5 17.5 (02:40) 10.56 (04:10) 6.6 0 0 0.2 6.4
20-02-2021 19.3 (13:50) 5.4 (00:00) 12.3 13.61 (23:40) 8.33 (23:40) 0 0 0 0 0
19-02-2021 18.7 (16:20) 1.6 (00:00) 10.2 9.44 (14:40) 5.28 (14:40) 0 0 0 0 0
18-02-2021 16.7 (15:50) 1.9 (00:00) 9.3 10.83 (17:40) 6.39 (16:20) 0 0 0 0 0
17-02-2021 17.5 (16:10) 2.4 (00:00) 10 6.67 (16:20) 4.44 (16:10) 0 0 0 0 0
16-02-2021 15.4 (15:00) 1.1 (00:00) 8.2 8.06 (16:00) 5.28 (15:40) 0 0 0 0 0
15-02-2021 15.4 (16:10) 2.8 (00:00) 9.1 6.67 (21:00) 3.61 (20:50) 0 0 0 0 0
14-02-2021 16.8 (16:00) 0.6 (00:00) 8.7 7.22 (23:40) 4.17 (23:40) 0 0 0 0 0
13-02-2021 16.3 (17:10) 1.6 (00:00) 8.9 6.39 (20:30) 3.33 (20:40) 0 0 0 0 0
12-02-2021 15.3 (16:30) 5.7 (00:00) 10.5 12.22 (12:40) 8.33 (12:40) 5.8 0.8 5 0 0
11-02-2021 13.1 (14:20) 4.9 (00:00) 9 5.83 (17:50) 2.78 (16:20) 0.2 0 0 0.2 0
10-02-2021 15 (16:30) 5.5 (00:00) 10.3 15.28 (04:10) 9.44 (04:00) 2 1.8 0 0.2 0
09-02-2021 10.3 (12:40) 6.1 (00:00) 8.2 17.22 (15:10) 9.17 (15:10) 8.8 3.2 0.4 4.8 0.4
08-02-2021 10.2 (14:10) 6.1 (00:00) 8.1 12.78 (15:40) 7.78 (13:50) 12.8 4.6 1.4 2.2 4.6
07-02-2021 12.1 (15:10) 4.8 (00:00) 8.5 10 (19:10) 6.11 (17:30) 1 0.2 0 0 0.8
06-02-2021 13.6 (15:00) 7.3 (00:00) 10.5 9.17 (00:20) 5 (00:20) 9 0 0 5.4 3.6
05-02-2021 17.9 (15:00) 6.6 (00:00) 12.2 8.06 (22:30) 5.56 (22:30) 3 0 0 0 3
04-02-2021 15 (14:20) 8.8 (00:00) 11.9 8.33 (15:00) 5.28 (15:00) 0 0 0 0 0
03-02-2021 13 (17:10) 8.2 (00:00) 10.6 7.78 (12:30) 4.44 (12:30) 0 0 0 0 0
02-02-2021 13 (15:40) 7.3 (00:00) 10.2 8.89 (15:50) 5 (15:30) 0 0 0 0 0
01-02-2021 17.3 (15:10) 8.2 (00:00) 12.7 14.72 (02:20) 9.44 (02:20) 0 0 0 0 0
31-01-2021 13.2 (16:40) 7.6 (00:00) 10.4 14.44 (17:00) 9.17 (16:50) 0 0 0 0 0

Gráficas

Temp. máximas Temp. mínimas Temp. medias Precipitaciones Rachas de viento máximas Velocidades máximas media en intervalos de 10 minutos

Datos horarios

Fecha y hora oficial Temperatura (ºC) Velocidad del viento (km/h) Dirección del viento Racha (km/h) Dirección de racha Precipitación (mm) Presión (hPa) Tendencia (hPa) Humedad (%)
2021-03-01 23:00:00 -- -- -- -- -- -- -- -- --
2021-03-01 22:00:00 -- -- -- -- -- -- -- -- --
2021-03-01 21:00:00 10.4 7 Sudeste 15 Sudeste 0 -- -- 73
2021-03-01 20:00:00 10.6 9 Sudeste 17 Sudeste 0 -- -- 70
2021-03-01 19:00:00 10.1 8 Sudeste 14 Sudeste 0 -- -- 75
2021-03-01 18:00:00 9.7 7 Nordeste 13 Este 0 -- -- 77
2021-03-01 17:00:00 10 9 Este 14 Nordeste 0 -- -- 76
2021-03-01 16:00:00 10.1 9 Nordeste 12 Nordeste 0 -- -- 74
2021-03-01 15:00:00 10.2 8 Nordeste 14 Nordeste 0 -- -- 73
2021-03-01 14:00:00 9.4 6 Nordeste 10 Nordeste 0 -- -- 74
2021-03-01 13:00:00 8.5 4 Nordeste 13 Nordeste 0 -- -- 76
2021-03-01 12:00:00 8.2 7 Nordeste 13 Nordeste 0 -- -- 76
2021-03-01 11:00:00 7.5 7 Nordeste 15 Nordeste 0 -- -- 79
2021-03-01 10:00:00 6.4 9 Nordeste 14 Nordeste 0 -- -- 83
2021-03-01 09:00:00 5.1 9 Nordeste 14 Nordeste 0 -- -- 88
2021-03-01 08:00:00 4 5 Nordeste 12 Nordeste 0 -- -- 87
2021-03-01 07:00:00 3.9 6 Nordeste 12 Nordeste 0 -- -- 88
2021-03-01 06:00:00 4.3 9 Nordeste 15 Este 0 -- -- 87
2021-03-01 05:00:00 4 8 Nordeste 18 Nordeste 0 -- -- 86
2021-03-01 04:00:00 3.9 3 Nordeste 5 Este 0 -- -- 84
2021-03-01 03:00:00 5.8 0 Calma 15 Sudeste 0 -- -- 77
2021-03-01 02:00:00 7.5 5 Este 15 Nordeste 0 -- -- 70
2021-03-01 01:00:00 8.2 5 Nordeste 13 Este 0 -- -- 70
2021-03-01 00:00:00 8.6 3 Noroeste 27 Sudeste 0 -- -- 70
2021-02-28 23:00:00 9.4 17 Sudeste 39 Sudeste 0 -- -- 68
2021-02-28 22:00:00 9.6 10 Sudeste 41 Sudeste 0 -- -- 69
2021-02-28 21:00:00 10.5 26 Sudeste 44 Sudeste 0 -- -- 65
2021-02-28 20:00:00 10.8 19 Sudeste 35 Sudeste 0 -- -- 62
2021-02-28 19:00:00 11.8 20 Sudeste 36 Sudeste 0 -- -- 59
2021-02-28 18:00:00 13.2 23 Sudeste 36 Sur 0 -- -- 56
2021-02-28 17:00:00 14.2 17 Sur 30 Sudeste 0 -- -- 53
2021-02-28 16:00:00 14.3 18 Sur 31 Sur 0 -- -- 53
2021-02-28 15:00:00 14.2 17 Sur 30 Sur 0 -- -- 54
2021-02-28 14:00:00 13.8 21 Sur 33 Sur 0 -- -- 56
2021-02-28 13:00:00 13.6 13 Sur 27 Sur 0 -- -- 58
2021-02-28 12:00:00 11.7 15 Sur 25 Sur 0 -- -- 63
2021-02-28 11:00:00 9.8 4 Nordeste 13 Este 0 -- -- 69
2021-02-28 10:00:00 6.5 4 Nordeste 11 Nordeste 0 -- -- 81
2021-02-28 09:00:00 2.7 5 Nordeste 9 Nordeste 0 -- -- 90
2021-02-28 08:00:00 0.5 3 Este 9 Nordeste 0 -- -- 92
2021-02-28 07:00:00 0.6 4 Noroeste 8 Sudoeste 0 -- -- 93
2021-02-28 06:00:00 1.4 4 Este 6 Este 0 -- -- 91
2021-02-28 05:00:00 2 0 Calma 2 Este 0 -- -- 88
2021-02-28 04:00:00 3.2 0 Calma 5 Nordeste 0 -- -- 84
2021-02-28 03:00:00 4.8 2 Nordeste 10 Este 0 -- -- 79
2021-02-28 02:00:00 6.2 4 Este 15 Este 0 -- -- 78
2021-02-28 01:00:00 7.3 11 Nordeste 18 Nordeste 0 -- -- 78
2021-02-28 00:00:00 8 10 Nordeste 18 Nordeste 0 -- -- 74
2021-02-27 23:00:00 8.2 11 Nordeste 17 Nordeste 0 -- -- 75
2021-02-27 22:00:00 8 3 Sudeste 12 Nordeste 0 -- -- 78
2021-02-27 21:00:00 9.3 5 Nordeste 9 Nordeste 0 -- -- 75
2021-02-27 20:00:00 12.1 2 Nordeste 7 Sur 0 -- -- 65
2021-02-27 19:00:00 15.4 2 Sudoeste 11 Sudoeste 0 -- -- 55
2021-02-27 18:00:00 18 6 Sudoeste 12 Sudoeste 0 -- -- 50
2021-02-27 17:00:00 20 9 Sudoeste 13 Oeste 0 -- -- 44
2021-02-27 16:00:00 20.1 0 Calma 10 Sudoeste 0 -- -- 41
2021-02-27 15:00:00 18.5 3 Noroeste 9 Oeste 0 -- -- 46
2021-02-27 14:00:00 17.3 5 Nordeste 8 Nordeste 0 -- -- 48
2021-02-27 13:00:00 16.5 4 Sur 11 Norte 0 -- -- 53
2021-02-27 12:00:00 14.1 6 Este 15 Este 0 -- -- 63
2021-02-27 11:00:00 11.2 10 Nordeste 20 Nordeste 0 -- -- 70
2021-02-27 10:00:00 8.2 13 Nordeste 21 Nordeste 0 -- -- 79
2021-02-27 09:00:00 5.3 8 Nordeste 12 Nordeste 0 -- -- 91
2021-02-27 08:00:00 2.7 6 Nordeste 10 Nordeste 0 -- -- 93
2021-02-27 07:00:00 2.5 4 Nordeste 9 Este 0 -- -- 91
2021-02-27 06:00:00 3.8 8 Nordeste 12 Este 0 -- -- 89
2021-02-27 05:00:00 4.3 7 Este 10 Este 0 -- -- 89
2021-02-27 04:00:00 5 4 Nordeste 12 Nordeste 0 -- -- 86
2021-02-27 03:00:00 5.5 7 Nordeste 9 Nordeste 0 -- -- 86
2021-02-27 02:00:00 6.2 6 Este 12 Este 0 -- -- 86
2021-02-27 01:00:00 6.5 6 Este 10 Este 0 -- -- 84
2021-02-27 00:00:00 6.9 6 Nordeste 9 Este 0 -- -- 84
2021-02-26 23:00:00 7.2 3 Nordeste 5 Nordeste 0 -- -- 86
2021-02-26 22:00:00 7.8 3 Este 10 Nordeste 0 -- -- 83
2021-02-26 21:00:00 9.3 5 Nordeste 7 Nordeste 0 -- -- 80
2021-02-26 20:00:00 11.4 0 Calma 7 Norte 0 -- -- 73
2021-02-26 19:00:00 14.6 5 Norte 8 Noroeste 0 -- -- 61
2021-02-26 18:00:00 16 5 Norte 8 Noroeste 0 -- -- 53
2021-02-26 17:00:00 16.4 4 Noroeste 11 Oeste 0 -- -- 51
2021-02-26 16:00:00 17.1 6 Oeste 15 Oeste 0 -- -- 47
2021-02-26 15:00:00 17.2 4 Sudoeste 15 Sur 0 -- -- 47
2021-02-26 14:00:00 16.1 8 Sudoeste 13 Sur 0 -- -- 52
2021-02-26 13:00:00 14.8 3 Sudeste 10 Nordeste 0 -- -- 57
2021-02-26 12:00:00 12.1 8 Nordeste 12 Nordeste 0 -- -- 68
2021-02-26 11:00:00 10.4 8 Este 16 Este 0 -- -- 75
2021-02-26 10:00:00 7.7 8 Nordeste 12 Este 0 -- -- 84
2021-02-26 09:00:00 4.5 6 Nordeste 9 Nordeste 0 -- -- 94
2021-02-26 08:00:00 2.9 4 Nordeste 6 Nordeste 0 -- -- 93
2021-02-26 07:00:00 3.2 0 Calma 9 Nordeste 0 -- -- 90
2021-02-26 06:00:00 4.3 5 Nordeste 7 Nordeste 0 -- -- 89
2021-02-26 05:00:00 5.5 4 Este 13 Nordeste 0 -- -- 86
2021-02-26 04:00:00 6.3 10 Nordeste 14 Nordeste 0 -- -- 85
2021-02-26 03:00:00 7 8 Nordeste 13 Nordeste 0 -- -- 83
2021-02-26 02:00:00 7.2 7 Nordeste 15 Nordeste 0 -- -- 83
2021-02-26 01:00:00 7.4 8 Nordeste 15 Nordeste 0 -- -- 83
2021-02-26 00:00:00 7.1 5 Nordeste 10 Nordeste 0 -- -- 85
2021-02-25 23:00:00 7.8 6 Nordeste 12 Nordeste 0 -- -- 85
2021-02-25 22:00:00 8.2 5 Este 8 Nordeste 0 -- -- 84
2021-02-25 21:00:00 9.7 5 Nordeste 8 Este 0 -- -- 81
2021-02-25 20:00:00 10.7 6 Nordeste 8 Nordeste 0 -- -- 78
2021-02-25 19:00:00 11.8 7 Nordeste 10 Este 0 -- -- 74
2021-02-25 18:00:00 13.5 7 Este 12 Nordeste 0 -- -- 67
2021-02-25 17:00:00 13.9 6 Nordeste 13 Nordeste 0 -- -- 65
2021-02-25 16:00:00 13.8 8 Norte 12 Norte 0 -- -- 63
2021-02-25 15:00:00 13.5 5 Nordeste 14 Nordeste 0 -- -- 64
2021-02-25 14:00:00 13.2 5 Nordeste 14 Norte 0 -- -- 67
2021-02-25 13:00:00 11.9 6 Norte 12 Norte 0 -- -- 70
2021-02-25 12:00:00 11.1 6 Nordeste 13 Nordeste 0 -- -- 71
2021-02-25 11:00:00 9.7 9 Nordeste 14 Nordeste 0 -- -- 78
2021-02-25 10:00:00 7.7 6 Nordeste 10 Nordeste 0 -- -- 88
2021-02-25 09:00:00 5.3 6 Nordeste 12 Nordeste 0 -- -- 94
2021-02-25 08:00:00 2.9 4 Nordeste 8 Este 0 -- -- 93
2021-02-25 07:00:00 3.7 3 Este 15 Nordeste 0 -- -- 92
2021-02-25 06:00:00 4.6 12 Nordeste 17 Nordeste 0 -- -- 92
2021-02-25 05:00:00 3.7 5 Este 7 Este 0 -- -- 91
2021-02-25 04:00:00 5 0 Calma 12 Nordeste 0 -- -- 90
2021-02-25 03:00:00 5.2 8 Nordeste 13 Nordeste 0 -- -- 89
2021-02-25 02:00:00 6 5 Nordeste 12 Nordeste 0 -- -- 86
2021-02-25 01:00:00 7.4 4 Nordeste 18 Nordeste 0 -- -- 79
2021-02-25 00:00:00 10.1 5 Norte 13 Oeste 0 -- -- 71
2021-02-24 23:00:00 10.5 3 Nordeste 32 Sudeste 0 -- -- 69
2021-02-24 22:00:00 11.2 17 Sudeste 36 Sudeste 0 -- -- 67
2021-02-24 21:00:00 12 23 Sudeste 41 Sudeste 0 -- -- 65
2021-02-24 20:00:00 11.5 0 Calma 9 Noroeste 0 -- -- 69
2021-02-24 19:00:00 12.9 0 Calma 24 Sur 0 -- -- 66
2021-02-24 18:00:00 14.7 16 Sur 29 Sur 0 -- -- 60
2021-02-24 17:00:00 15.4 16 Sur 30 Sudeste 0 -- -- 60
2021-02-24 16:00:00 15.5 17 Sudeste 28 Sudeste 0 -- -- 62
2021-02-24 15:00:00 16.2 15 Sur 27 Sur 0 -- -- 62
2021-02-24 14:00:00 15.6 19 Sur 30 Sur 0 -- -- 66
2021-02-24 13:00:00 12.3 8 Nordeste 14 Nordeste 0 -- -- 72
2021-02-24 12:00:00 10.8 7 Nordeste 12 Este 0 -- -- 75
2021-02-24 11:00:00 9 5 Oeste 11 Oeste 0 -- -- 84
2021-02-24 10:00:00 5.9 5 Nordeste 12 Nordeste 0 -- -- 90
2021-02-24 09:00:00 3.1 9 Nordeste 14 Este 0 -- -- 94
2021-02-24 08:00:00 1.9 6 Este 12 Nordeste 0 -- -- 94
2021-02-24 07:00:00 2 7 Este 9 Este 0 -- -- 94
2021-02-24 06:00:00 2.4 5 Este 9 Norte 0 -- -- 93
2021-02-24 05:00:00 2.7 6 Este 10 Nordeste 0 -- -- 93
2021-02-24 04:00:00 3.2 6 Nordeste 11 Nordeste 0 -- -- 92
2021-02-24 03:00:00 3.5 5 Nordeste 9 Este 0 -- -- 92
2021-02-24 02:00:00 3.7 2 Sur 13 Nordeste 0 -- -- 91
2021-02-24 01:00:00 4.5 10 Nordeste 14 Nordeste 0 -- -- 90
2021-02-24 00:00:00 4.9 0 Calma 8 Este 0 -- -- 85
2021-02-23 23:00:00 6.4 4 Norte 6 Nordeste 0 -- -- 82
2021-02-23 22:00:00 6.9 0 Calma 6 Sudeste 0 -- -- 80
2021-02-23 21:00:00 8.1 4 Sudeste 10 Sur 0 -- -- 77
2021-02-23 20:00:00 9.5 6 Sur 10 Sudeste 0 -- -- 72
2021-02-23 19:00:00 12.2 5 Sur 12 Sur 0 -- -- 63
2021-02-23 18:00:00 14.3 9 Sur 19 Sur 0 -- -- 54
2021-02-23 17:00:00 15 6 Sur 21 Sur 0 -- -- 57
2021-02-23 16:00:00 14.8 8 Sur 17 Sudoeste 0 -- -- 54
2021-02-23 15:00:00 12.8 4 Noroeste 13 Oeste 0 -- -- 65
2021-02-23 14:00:00 12.9 10 Oeste 18 Noroeste 0 -- -- 65
2021-02-23 13:00:00 12.4 5 Oeste 12 Oeste 0 -- -- 67
2021-02-23 12:00:00 11.2 4 Sudeste 9 Sudeste 0 -- -- 71
2021-02-23 11:00:00 8.7 4 Nordeste 15 Nordeste 0 -- -- 77
2021-02-23 10:00:00 6.5 9 Nordeste 13 Este 0 -- -- 85
2021-02-23 09:00:00 3.8 10 Nordeste 14 Nordeste 0 -- -- 94
2021-02-23 08:00:00 1.8 6 Este 9 Nordeste 0 -- -- 95
2021-02-23 07:00:00 1.2 6 Nordeste 8 Nordeste 0 -- -- 94
2021-02-23 06:00:00 2.2 3 Nordeste 6 Nordeste 0 -- -- 93
2021-02-23 05:00:00 3.2 0 Calma 4 Sudoeste 0 -- -- 91
2021-02-23 04:00:00 4.5 3 Oeste 6 Oeste 0 -- -- 90
2021-02-23 03:00:00 5.3 0 Calma 3 Nordeste 0 -- -- 89
2021-02-23 02:00:00 5.7 3 Nordeste 5 Este 0 -- -- 87
2021-02-23 01:00:00 6.7 0 Calma 7 Nordeste 0 -- -- 85
2021-02-23 00:00:00 7 4 Nordeste 7 Nordeste 0 -- -- 84
2021-02-22 23:00:00 6.8 2 Nordeste 6 Nordeste 0 -- -- 84
2021-02-22 22:00:00 7.3 4 Nordeste 5 Nordeste 0 -- -- 83
2021-02-22 21:00:00 7.8 4 Nordeste 7 Nordeste 0 -- -- 79
2021-02-22 20:00:00 8.8 5 Este 13 Nordeste 0 -- -- 74
2021-02-22 19:00:00 10.5 5 Noroeste 12 Noroeste 0 -- -- 63
2021-02-22 18:00:00 11 5 Noroeste 17 Noroeste 0 -- -- 59
2021-02-22 17:00:00 10.9 12 Noroeste 20 Noroeste 0 -- -- 57
2021-02-22 16:00:00 11 12 Oeste 22 Noroeste 0 -- -- 64
2021-02-22 15:00:00 10.8 6 Norte 15 Norte 0 -- -- 59
2021-02-22 14:00:00 10.5 8 Norte 17 Noroeste 0 -- -- 60
2021-02-22 13:00:00 9.6 9 Nordeste 24 Norte 0 -- -- 68
2021-02-22 12:00:00 8.8 13 Nordeste 23 Nordeste 0 -- -- 69
2021-02-22 11:00:00 7.9 8 Norte 16 Norte 0 -- -- 73
2021-02-22 10:00:00 7 5 Oeste 12 Noroeste 0 -- -- 81
2021-02-22 09:00:00 6.1 4 Noroeste 9 Noroeste 0 -- -- 81
2021-02-22 08:00:00 5.6 6 Oeste 11 Sur 0 -- -- 89
2021-02-22 07:00:00 5.3 0 Calma 8 Sudoeste 0 -- -- 90
2021-02-22 06:00:00 5.3 3 Sur 10 Sur 0 -- -- 90
2021-02-22 05:00:00 5.4 5 Sur 9 Sur 0 -- -- 93
2021-02-22 04:00:00 5.7 4 Sur 10 Sudoeste 0.8 -- -- 94
2021-02-22 03:00:00 6 5 Sudoeste 8 Sur 0.6 -- -- 93
2021-02-22 02:00:00 6.2 0 Calma 8 Sur 0.6 -- -- 93
2021-02-22 01:00:00 6.5 0 Calma 6 Oeste 0.4 -- -- 93
2021-02-22 00:00:00 6.6 0 Calma 8 Sudoeste 0 -- -- 92
2021-02-21 23:00:00 7 5 Sudoeste 23 Oeste 1.2 -- -- 93
2021-02-21 22:00:00 8.3 4 Sudoeste 24 Sudoeste 1.6 -- -- 94
2021-02-21 21:00:00 8.6 15 Sudoeste 31 Sudoeste 3 -- -- 91
2021-02-21 20:00:00 9.9 2 Nordeste 15 Sudeste 0.4 -- -- 87
2021-02-21 19:00:00 10.5 7 Sudeste 12 Sudeste 0.2 -- -- 82
2021-02-21 18:00:00 11.1 4 Sudeste 28 Sudeste 0.2 -- -- 81
2021-02-21 17:00:00 11.3 14 Sudeste 26 Sudeste 0 -- -- 76
2021-02-21 16:00:00 12.1 15 Sudeste 28 Sur 0 -- -- 68
2021-02-21 15:00:00 11.8 19 Sudeste 36 Sur 0 -- -- 69
2021-02-21 14:00:00 11.8 20 Sur 33 Sudeste 0 -- -- 69
2021-02-21 13:00:00 11.3 17 Sudeste 34 Sur 0 -- -- 69
2021-02-21 12:00:00 11 25 Sudeste 39 Sur 0 -- -- 69
2021-02-21 11:00:00 10.9 19 Sudeste 34 Sudeste 0 -- -- 69
2021-02-21 10:00:00 10.5 3 Sudoeste 16 Oeste 0 -- -- 67
2021-02-21 09:00:00 10.1 7 Oeste 17 Oeste 0 -- -- 65
2021-02-21 08:00:00 10.5 5 Sudoeste 21 Sudoeste 0 -- -- 61
2021-02-21 07:00:00 11.6 10 Oeste 57 Sudeste 0 -- -- 53
2021-02-21 06:00:00 11.9 33 Sudeste 60 Sudeste 0 -- -- 51
2021-02-21 05:00:00 11.4 36 Sudeste 55 Sudeste 0 -- -- 54
2021-02-21 04:00:00 10.8 36 Sudeste 55 Sudeste 0 -- -- 61
2021-02-21 03:00:00 10.9 35 Sudeste 63 Sudeste 0 -- -- 62
2021-02-21 02:00:00 11.1 29 Sudeste 53 Sudeste 0 -- -- 62
2021-02-21 01:00:00 11.8 36 Sudeste 57 Sudeste 0 -- -- 62
2021-02-21 00:00:00 12.2 27 Sudeste 49 Sudeste 0 -- -- 61
2021-02-20 23:00:00 12.6 23 Sudeste 41 Sudeste 0 -- -- 58
2021-02-20 22:00:00 13.3 21 Sudeste 32 Sudeste 0 -- -- 44
2021-02-20 21:00:00 10.8 0 Calma 9 Sur 0 -- -- 51
2021-02-20 20:00:00 12.2 5 Sur 12 Sur 0 -- -- 49
2021-02-20 19:00:00 14.8 5 Sur 18 Sur 0 -- -- 40
2021-02-20 18:00:00 16.9 9 Sur 28 Sur 0 -- -- 33
2021-02-20 17:00:00 18.7 18 Sur 39 Sur 0 -- -- 33
2021-02-20 16:00:00 18 11 Sur 37 Sudoeste 0 -- -- 35
2021-02-20 15:00:00 18.2 18 Sur 37 Sudoeste 0 -- -- 34
2021-02-20 14:00:00 19.1 19 Sur 41 Sudoeste 0 -- -- 34
2021-02-20 13:00:00 18.4 19 Sur 44 Sur 0 -- -- 37
2021-02-20 12:00:00 16.8 17 Sur 29 Sur 0 -- -- 42
2021-02-20 11:00:00 12.5 7 Oeste 19 Sudoeste 0 -- -- 61
2021-02-20 10:00:00 10.9 12 Oeste 18 Oeste 0 -- -- 63
2021-02-20 09:00:00 8.9 4 Noroeste 15 Oeste 0 -- -- 68
2021-02-20 08:00:00 7.5 5 Noroeste 13 Noroeste 0 -- -- 69
2021-02-20 07:00:00 7.9 9 Noroeste 18 Noroeste 0 -- -- 65
2021-02-20 06:00:00 7.5 5 Noroeste 15 Sur 0 -- -- 65
2021-02-20 05:00:00 7.6 0 Calma 14 Sur 0 -- -- 63
2021-02-20 04:00:00 8 3 Noroeste 17 Sudoeste 0 -- -- 62
2021-02-20 03:00:00 8.2 7 Oeste 11 Oeste 0 -- -- 61
2021-02-20 02:00:00 8.9 4 Sur 17 Sur 0 -- -- 56
2021-02-20 01:00:00 5.4 2 Sudoeste 4 Sur 0 -- -- 75
2021-02-20 00:00:00 7.3 3 Sudoeste 9 Sur 0 -- -- 67
2021-02-19 23:00:00 7.8 0 Calma 5 Sudeste 0 -- -- 68
2021-02-19 22:00:00 9.1 0 Calma 12 Sur 0 -- -- 62
2021-02-19 21:00:00 11.6 7 Sur 12 Sur 0 -- -- 51
2021-02-19 20:00:00 12.2 4 Sur 9 Sur 0 -- -- 49
2021-02-19 19:00:00 14.4 3 Sudoeste 16 Sudoeste 0 -- -- 42
2021-02-19 18:00:00 16.8 13 Sudoeste 29 Sudoeste 0 -- -- 35
2021-02-19 17:00:00 18.7 18 Sudoeste 29 Sudoeste 0 -- -- 35
2021-02-19 16:00:00 18.4 16 Sudoeste 28 Sudoeste 0 -- -- 38
2021-02-19 15:00:00 17.9 18 Sudoeste 34 Oeste 0 -- -- 42
2021-02-19 14:00:00 17 15 Sudoeste 22 Sudoeste 0 -- -- 48
2021-02-19 13:00:00 14.5 10 Oeste 15 Noroeste 0 -- -- 59
2021-02-19 12:00:00 12.4 3 Oeste 7 Oeste 0 -- -- 65
2021-02-19 11:00:00 9.6 6 Nordeste 10 Nordeste 0 -- -- 71
2021-02-19 10:00:00 5.9 8 Nordeste 13 Nordeste 0 -- -- 84
2021-02-19 09:00:00 2.9 9 Nordeste 15 Nordeste 0 -- -- 92
2021-02-19 08:00:00 1.7 4 Este 8 Nordeste 0 -- -- 91
2021-02-19 07:00:00 2.2 6 Nordeste 11 Nordeste 0 -- -- 90
2021-02-19 06:00:00 2.4 5 Nordeste 10 Nordeste 0 -- -- 90
2021-02-19 05:00:00 2.8 7 Nordeste 10 Nordeste 0 -- -- 90
2021-02-19 04:00:00 2.9 8 Nordeste 9 Nordeste 0 -- -- 90
2021-02-19 03:00:00 3.1 7 Nordeste 9 Nordeste 0 -- -- 89
2021-02-19 02:00:00 3.7 4 Nordeste 6 Nordeste 0 -- -- 87
2021-02-19 01:00:00 4.2 4 Nordeste 6 Nordeste 0 -- -- 86
2021-02-19 00:00:00 5.2 3 Nordeste 4 Nordeste 0 -- -- 82
2021-02-18 23:00:00 6.3 2 Norte 4 Nordeste 0 -- -- 77
2021-02-18 22:00:00 7.6 0 Calma 4 Noroeste 0 -- -- 70
2021-02-18 21:00:00 9.2 2 Noroeste 8 Sudoeste 0 -- -- 62
2021-02-18 20:00:00 10.5 4 Sudoeste 11 Sudoeste 0 -- -- 56
2021-02-18 19:00:00 12.4 7 Sudoeste 26 Sudoeste 0 -- -- 51
2021-02-18 18:00:00 15 17 Sudoeste 39 Sudoeste 0 -- -- 44
2021-02-18 17:00:00 16.1 21 Sudoeste 36 Sudoeste 0 -- -- 39
2021-02-18 16:00:00 16.7 22 Sudoeste 34 Sudoeste 0 -- -- 41
2021-02-18 15:00:00 16.3 16 Sudoeste 29 Sudoeste 0 -- -- 53
2021-02-18 14:00:00 15.2 12 Sudoeste 19 Sudoeste 0 -- -- 59
2021-02-18 13:00:00 14.2 7 Oeste 17 Oeste 0 -- -- 64
2021-02-18 12:00:00 10.9 3 Sudoeste 7 Sudoeste 0 -- -- 73
2021-02-18 11:00:00 8.3 3 Sur 6 Nordeste 0 -- -- 84
2021-02-18 10:00:00 6.1 4 Nordeste 7 Nordeste 0 -- -- 90
2021-02-18 09:00:00 3.5 0 Calma 7 Nordeste 0 -- -- 96
2021-02-18 08:00:00 2 5 Este 8 Nordeste 0 -- -- 95
2021-02-18 07:00:00 2.2 3 Nordeste 8 Nordeste 0 -- -- 94
2021-02-18 06:00:00 2.4 3 Este 6 Este 0 -- -- 94
2021-02-18 05:00:00 2.7 4 Nordeste 9 Este 0 -- -- 94
2021-02-18 04:00:00 2.6 2 Este 8 Nordeste 0 -- -- 93
2021-02-18 03:00:00 2.9 5 Nordeste 8 Este 0 -- -- 93
2021-02-18 02:00:00 3.4 4 Nordeste 7 Nordeste 0 -- -- 91
2021-02-18 01:00:00 4.5 3 Nordeste 8 Nordeste 0 -- -- 90
2021-02-18 00:00:00 4.9 5 Nordeste 6 Este 0 -- -- 88
2021-02-17 23:00:00 5.8 4 Nordeste 7 Nordeste 0 -- -- 85
2021-02-17 22:00:00 7.3 4 Nordeste 9 Nordeste 0 -- -- 82
2021-02-17 21:00:00 9.3 0 Calma 4 Sur 0 -- -- 76
2021-02-17 20:00:00 10.4 2 Sur 5 Sudeste 0 -- -- 69
2021-02-17 19:00:00 13.1 4 Sudeste 15 Sudoeste 0 -- -- 60
2021-02-17 18:00:00 15.8 12 Sudoeste 24 Sudoeste 0 -- -- 51
2021-02-17 17:00:00 17.1 16 Sudoeste 24 Sudoeste 0 -- -- 45
2021-02-17 16:00:00 17.3 15 Sudoeste 24 Sudoeste 0 -- -- 47
2021-02-17 15:00:00 16.9 9 Sudoeste 21 Oeste 0 -- -- 56
2021-02-17 14:00:00 16.3 11 Oeste 18 Oeste 0 -- -- 62
2021-02-17 13:00:00 14.5 6 Oeste 13 Oeste 0 -- -- 66
2021-02-17 12:00:00 12.1 2 Oeste 5 Noroeste 0 -- -- 75
2021-02-17 11:00:00 9.8 0 Calma 8 Nordeste 0 -- -- 82
2021-02-17 10:00:00 7.2 5 Nordeste 9 Este 0 -- -- 92
2021-02-17 09:00:00 4.6 6 Nordeste 10 Nordeste 0 -- -- 97
2021-02-17 08:00:00 2.6 4 Este 5 Nordeste 0 -- -- 95
2021-02-17 07:00:00 2.9 3 Este 6 Nordeste 0 -- -- 95
2021-02-17 06:00:00 3.6 3 Este 5 Nordeste 0 -- -- 93
2021-02-17 05:00:00 4.3 4 Este 8 Nordeste 0 -- -- 94
2021-02-17 04:00:00 4.6 5 Este 8 Nordeste 0 -- -- 94
2021-02-17 03:00:00 5 5 Este 9 Nordeste 0 -- -- 93
2021-02-17 02:00:00 5.4 3 Nordeste 10 Nordeste 0 -- -- 92
2021-02-17 01:00:00 6 8 Nordeste 11 Nordeste 0 -- -- 91
2021-02-17 00:00:00 6.1 2 Norte 11 Nordeste 0 -- -- 90
2021-02-16 23:00:00 6.2 2 Nordeste 4 Sur 0 -- -- 86
2021-02-16 22:00:00 7.3 3 Norte 8 Nordeste 0 -- -- 85
2021-02-16 21:00:00 8.2 3 Nordeste 6 Este 0 -- -- 80
2021-02-16 20:00:00 10.2 6 Este 8 Norte 0 -- -- 74
2021-02-16 19:00:00 12.4 5 Sur 9 Sur 0 -- -- 64
2021-02-16 18:00:00 13.6 7 Sudoeste 21 Sudoeste 0 -- -- 63
2021-02-16 17:00:00 14.7 16 Sudoeste 29 Sudoeste 0 -- -- 58
2021-02-16 16:00:00 15.3 17 Sudoeste 29 Sudoeste 0 -- -- 54
2021-02-16 15:00:00 15.4 13 Sudoeste 21 Sudoeste 0 -- -- 58
2021-02-16 14:00:00 14.2 9 Oeste 17 Sudoeste 0 -- -- 66
2021-02-16 13:00:00 12.8 8 Sudoeste 13 Sudoeste 0 -- -- 69
2021-02-16 12:00:00 10.7 3 Noroeste 9 Norte 0 -- -- 75
2021-02-16 11:00:00 8.1 0 Calma 4 Norte 0 -- -- 85
2021-02-16 10:00:00 5.4 0 Calma 8 Nordeste 0 -- -- 96
2021-02-16 09:00:00 2.2 3 Nordeste 8 Este 0 -- -- 96
2021-02-16 08:00:00 1.2 2 Este 6 Este 0 -- -- 95
2021-02-16 07:00:00 1.6 3 Este 6 Nordeste 0 -- -- 95
2021-02-16 06:00:00 2.1 4 Este 5 Este 0 -- -- 95
2021-02-16 05:00:00 2.3 2 Este 7 Nordeste 0 -- -- 94
2021-02-16 04:00:00 3.1 6 Nordeste 8 Nordeste 0 -- -- 93
2021-02-16 03:00:00 3.5 6 Nordeste 7 Nordeste 0 -- -- 90
2021-02-16 02:00:00 5.3 3 Este 6 Nordeste 0 -- -- 85
2021-02-16 01:00:00 6.9 5 Nordeste 10 Este 0 -- -- 83
2021-02-16 00:00:00 8.5 5 Este 12 Norte 0 -- -- 77
2021-02-15 23:00:00 8.8 3 Oeste 13 Oeste 0 -- -- 76
2021-02-15 22:00:00 9.2 2 Sur 14 Sur 0 -- -- 75
2021-02-15 21:00:00 10.3 12 Sudeste 24 Sur 0 -- -- 73
2021-02-15 20:00:00 9.8 2 Este 7 Sur 0 -- -- 77
2021-02-15 19:00:00 11.9 5 Nordeste 11 Norte 0 -- -- 73
2021-02-15 18:00:00 14 4 Norte 10 Norte 0 -- -- 68
2021-02-15 17:00:00 14.6 4 Norte 12 Oeste 0 -- -- 65
2021-02-15 16:00:00 15.1 6 Oeste 11 Oeste 0 -- -- 64
2021-02-15 15:00:00 13.8 4 Noroeste 11 Norte 0 -- -- 66
2021-02-15 14:00:00 13.2 2 Noroeste 13 Noroeste 0 -- -- 67
2021-02-15 13:00:00 12.4 5 Nordeste 10 Nordeste 0 -- -- 69
2021-02-15 12:00:00 11.6 3 Norte 10 Nordeste 0 -- -- 72
2021-02-15 11:00:00 10.1 5 Nordeste 10 Este 0 -- -- 80
2021-02-15 10:00:00 6.5 6 Nordeste 12 Este 0 -- -- 91
2021-02-15 09:00:00 4.3 10 Nordeste 14 Nordeste 0 -- -- 94
2021-02-15 08:00:00 3.7 5 Este 8 Este 0 -- -- 95
2021-02-15 07:00:00 2.8 5 Nordeste 8 Nordeste 0 -- -- 94
2021-02-15 06:00:00 3 5 Nordeste 7 Nordeste 0 -- -- 92
2021-02-15 05:00:00 4 5 Nordeste 9 Nordeste 0 -- -- 90
2021-02-15 04:00:00 5.3 3 Nordeste 6 Nordeste 0 -- -- 86
2021-02-15 03:00:00 7.4 4 Nordeste 13 Este 0 -- -- 81
2021-02-15 02:00:00 9.1 4 Este 22 Sudoeste 0 -- -- 76
2021-02-15 01:00:00 8.8 9 Oeste 17 Oeste 0 -- -- 79
2021-02-15 00:00:00 9.5 6 Sur 26 Sur 0 -- -- 75
2021-02-14 23:00:00 8.3 4 Sur 8 Sur 0 -- -- 81
2021-02-14 22:00:00 7.6 0 Calma 4 Sur 0 -- -- 81
2021-02-14 21:00:00 9.4 2 Sudoeste 5 Sur 0 -- -- 73
2021-02-14 20:00:00 10.2 0 Calma 5 Sur 0 -- -- 72
2021-02-14 19:00:00 13 4 Sudeste 9 Sur 0 -- -- 63
2021-02-14 18:00:00 15.2 6 Sur 14 Sur 0 -- -- 52
2021-02-14 17:00:00 16.6 8 Sur 20 Sudeste 0 -- -- 49
2021-02-14 16:00:00 16.8 8 Sur 17 Sur 0 -- -- 50
2021-02-14 15:00:00 16.4 5 Sudoeste 18 Sudeste 0 -- -- 50
2021-02-14 14:00:00 14.9 5 Oeste 13 Oeste 0 -- -- 63
2021-02-14 13:00:00 12.8 3 Norte 10 Oeste 0 -- -- 68
2021-02-14 12:00:00 10.5 3 Noroeste 6 Oeste 0 -- -- 75
2021-02-14 11:00:00 8 4 Este 13 Nordeste 0 -- -- 82
2021-02-14 10:00:00 5 8 Nordeste 12 Nordeste 0 -- -- 92
2021-02-14 09:00:00 1.9 5 Nordeste 9 Nordeste 0 -- -- 97
2021-02-14 08:00:00 0.6 0 Calma 6 Nordeste 0 -- -- 94
2021-02-14 07:00:00 1.6 3 Nordeste 10 Nordeste 0 -- -- 94
2021-02-14 06:00:00 1.5 4 Este 10 Nordeste 0 -- -- 93
2021-02-14 05:00:00 2.4 4 Norte 11 Nordeste 0 -- -- 94
2021-02-14 04:00:00 2.8 8 Este 10 Este 0 -- -- 93
2021-02-14 03:00:00 3.4 2 Noroeste 8 Nordeste 0 -- -- 91
2021-02-14 02:00:00 4.4 3 Este 12 Nordeste 0 -- -- 89
2021-02-14 01:00:00 4.9 4 Nordeste 10 Nordeste 0 -- -- 88
2021-02-14 00:00:00 5.9 5 Nordeste 10 Nordeste 0 -- -- 84
2021-02-13 23:00:00 7.7 5 Este 13 Nordeste 0 -- -- 77
2021-02-13 22:00:00 9.3 11 Nordeste 14 Nordeste 0 -- -- 71
2021-02-13 21:00:00 10.6 5 Nordeste 23 Nordeste 0 -- -- 67
2021-02-13 20:00:00 9.8 3 Sudoeste 9 Norte 0 -- -- 69
2021-02-13 19:00:00 13.1 4 Sur 10 Oeste 0 -- -- 58
2021-02-13 18:00:00 15.8 4 Sudoeste 6 Sudoeste 0 -- -- 48
2021-02-13 17:00:00 16 5 Sudoeste 12 Sudoeste 0 -- -- 45
2021-02-13 16:00:00 15.3 5 Oeste 14 Sudoeste 0 -- -- 48
2021-02-13 15:00:00 14.2 8 Oeste 16 Sudoeste 0 -- -- 56
2021-02-13 14:00:00 13.2 8 Oeste 20 Sudoeste 0 -- -- 59
2021-02-13 13:00:00 12.2 6 Oeste 15 Oeste 0 -- -- 71
2021-02-13 08:00:00 -- -- -- -- -- -- -- -- --
2021-02-13 07:00:00 -- -- -- -- -- -- -- -- --
2021-02-13 06:00:00 -- -- -- -- -- -- -- -- --
2021-02-13 05:00:00 3.3 2 Noroeste 7 Este 0 -- -- 93
2021-02-13 04:00:00 4 2 Noroeste 6 Nordeste 0 -- -- 93
2021-02-13 03:00:00 4.3 2 Nordeste 5 Este 0 -- -- 92
2021-02-13 02:00:00 4.8 0 Calma 6 Sur 0 -- -- 89
2021-02-13 01:00:00 5.2 5 Sur 8 Oeste 0 -- -- 88
2021-02-13 00:00:00 5.7 4 Sudoeste 7 Sudoeste 0 -- -- 87
2021-02-12 23:00:00 6.7 0 Calma 11 Sudoeste 0 -- -- 83
2021-02-12 22:00:00 8.2 7 Oeste 17 Sur 0 -- -- 78
2021-02-12 21:00:00 9.5 9 Oeste 18 Sudoeste 0 -- -- 75
2021-02-12 20:00:00 10.9 9 Sudoeste 28 Noroeste 0 -- -- 69
2021-02-12 19:00:00 12.5 12 Noroeste 22 Noroeste 0 -- -- 60
2021-02-12 18:00:00 14.2 12 Noroeste 19 Norte 0 -- -- 55
2021-02-12 17:00:00 14.3 11 Oeste 17 Oeste 0 -- -- 58
2021-02-12 16:00:00 13.5 5 Oeste 22 Norte 0 -- -- 61
2021-02-12 15:00:00 13.5 10 Norte 25 Oeste 0 -- -- 60
2021-02-12 14:00:00 12.7 10 Noroeste 35 Oeste 0 -- -- 64
2021-02-12 13:00:00 13.2 26 Oeste 44 Oeste 0 -- -- 62
2021-02-12 12:00:00 12.6 24 Oeste 35 Oeste 0 -- -- 67
2021-02-12 11:00:00 11.5 19 Oeste 30 Sudoeste 0 -- -- 77
2021-02-12 10:00:00 10.4 12 Sudoeste 22 Sudoeste 0 -- -- 93
2021-02-12 09:00:00 9.5 12 Sudoeste 21 Sudoeste 0.2 -- -- 94
2021-02-12 08:00:00 9.5 11 Sudoeste 40 Oeste 4.2 -- -- 92
2021-02-12 07:00:00 10.6 15 Sudoeste 30 Sudoeste 0.6 -- -- 94
2021-02-12 06:00:00 10.7 14 Sudoeste 24 Sudoeste 0.8 -- -- 94
2021-02-12 05:00:00 10.5 5 Sudoeste 8 Sudoeste 0 -- -- 93
2021-02-12 04:00:00 10.9 4 Oeste 13 Sudoeste 0 -- -- 93
2021-02-12 03:00:00 11.3 8 Sudoeste 14 Sudoeste 0 -- -- 93
2021-02-12 02:00:00 11.6 9 Sudoeste 21 Sur 0 -- -- 92
2021-02-12 01:00:00 11.4 9 Sudoeste 17 Sudoeste 0 -- -- 94
2021-02-12 00:00:00 10.4 3 Sudoeste 5 Sudoeste 0 -- -- 94
2021-02-11 23:00:00 11.1 2 Sudoeste 5 Oeste 0 -- -- 94
2021-02-11 22:00:00 11.5 2 Sudoeste 13 Sudoeste 0 -- -- 92
2021-02-11 21:00:00 11.7 8 Sudoeste 16 Sur 0 -- -- 93
2021-02-11 20:00:00 11.6 5 Sudoeste 14 Sudoeste 0 -- -- 93
2021-02-11 19:00:00 11.7 6 Sudoeste 14 Sudoeste 0 -- -- 92
2021-02-11 18:00:00 12.2 9 Sur 21 Sur 0 -- -- 92
2021-02-11 17:00:00 12 10 Sudoeste 17 Sudoeste 0 -- -- 94
2021-02-11 16:00:00 12.3 10 Sudoeste 17 Sudoeste 0.2 -- -- 93
2021-02-11 15:00:00 12.6 8 Sudoeste 12 Sudoeste 0 -- -- 89
2021-02-11 14:00:00 12.9 7 Oeste 12 Oeste 0 -- -- 90
2021-02-11 13:00:00 11 6 Sudoeste 15 Sudoeste 0 -- -- 95
2021-02-11 12:00:00 10.1 6 Sudoeste 13 Sudoeste 0 -- -- 97
2021-02-11 11:00:00 8.6 0 Calma 5 Nordeste 0 -- -- 97
2021-02-11 10:00:00 6.9 5 Nordeste 11 Nordeste 0 -- -- 95
2021-02-11 09:00:00 6.4 2 Este 5 Nordeste 0 -- -- 94
2021-02-11 08:00:00 5.5 4 Nordeste 10 Nordeste 0 -- -- 94
2021-02-11 07:00:00 4.9 6 Nordeste 9 Nordeste 0 -- -- 93
2021-02-11 06:00:00 5.7 4 Nordeste 10 Nordeste 0 -- -- 92
2021-02-11 05:00:00 6.3 0 Calma 10 Nordeste 0 -- -- 91
2021-02-11 04:00:00 7.1 0 Calma 4 Sudoeste 0 -- -- 91
2021-02-11 03:00:00 7 3 Nordeste 5 Nordeste 0 -- -- 92
2021-02-11 02:00:00 6.1 4 Este 8 Este 0 -- -- 91
2021-02-11 01:00:00 5.6 2 Norte 4 Este 0 -- -- 90
2021-02-11 00:00:00 5.5 3 Noroeste 5 Sudoeste 0 -- -- 87
2021-02-10 23:00:00 6.3 0 Calma 8 Sudoeste 0 -- -- 81
2021-02-10 22:00:00 8.1 6 Sudoeste 13 Sudoeste 0 -- -- 76
2021-02-10 21:00:00 8.2 10 Sudoeste 20 Sudoeste 0 -- -- 76
2021-02-10 20:00:00 9.9 10 Sudoeste 18 Sudoeste 0 -- -- 71
2021-02-10 19:00:00 11.3 13 Sudoeste 23 Sur 0 -- -- 67
2021-02-10 18:00:00 13 15 Sudoeste 33 Sudoeste 0 -- -- 64
2021-02-10 17:00:00 14.5 18 Sudoeste 32 Sudoeste 0 -- -- 53
2021-02-10 16:00:00 14.8 22 Oeste 34 Oeste 0 -- -- 41
2021-02-10 15:00:00 14.1 17 Sudoeste 31 Oeste 0 -- -- 45
2021-02-10 14:00:00 13.1 19 Oeste 42 Oeste 0 -- -- 50
2021-02-10 13:00:00 12.1 28 Oeste 42 Sudoeste 0.2 -- -- 52
2021-02-10 12:00:00 11.2 27 Oeste 43 Oeste 0 -- -- 62
2021-02-10 11:00:00 10.2 26 Oeste 41 Oeste 0 -- -- 68
2021-02-10 10:00:00 8.9 18 Oeste 35 Sudoeste 0 -- -- 73
2021-02-10 09:00:00 7.7 12 Sudoeste 21 Sudoeste 0 -- -- 84
2021-02-10 08:00:00 6.6 9 Sudoeste 32 Sudoeste 0 -- -- 90
2021-02-10 07:00:00 6.8 3 Sudoeste 26 Oeste 0 -- -- 88
2021-02-10 06:00:00 7.3 19 Oeste 52 Oeste 0.8 -- -- 86
2021-02-10 05:00:00 7.4 29 Sudoeste 55 Sudoeste 1 -- -- 90
2021-02-10 04:00:00 8.1 34 Sudoeste 53 Sudoeste 0 -- -- 85
2021-02-10 03:00:00 7.9 26 Sudoeste 45 Sudoeste 0 -- -- 85
2021-02-10 02:00:00 7.9 20 Sudoeste 39 Sudoeste 0 -- -- 86
2021-02-10 01:00:00 8.2 23 Sudoeste 41 Sudoeste 0 -- -- 85
2021-02-10 00:00:00 7.9 19 Sudoeste 35 Sudoeste 0 -- -- 87
2021-02-09 23:00:00 8.2 21 Sudoeste 37 Sudoeste 0.2 -- -- 89
2021-02-09 22:00:00 8.7 24 Sudoeste 40 Sudoeste 0 -- -- 87
2021-02-09 21:00:00 8.8 24 Sudoeste 47 Oeste 0 -- -- 86
2021-02-09 20:00:00 8.6 28 Sudoeste 54 Sudoeste 0.2 -- -- 87
2021-02-09 19:00:00 8.5 23 Sudoeste 40 Sudoeste 0 -- -- 88
2021-02-09 18:00:00 7.6 10 Sudoeste 21 Sudoeste 0 -- -- 92
2021-02-09 17:00:00 7.2 9 Sudoeste 21 Sudoeste 0.2 -- -- 90
2021-02-09 16:00:00 7.4 21 Sudoeste 62 Oeste 3 -- -- 88
2021-02-09 15:00:00 9.6 33 Sudoeste 54 Sudoeste 1 -- -- 88
2021-02-09 14:00:00 9.5 19 Sudoeste 52 Sur 0.6 -- -- 89
2021-02-09 13:00:00 10.3 31 Sur 55 Sudoeste 0 -- -- 83
2021-02-09 12:00:00 9.9 23 Sur 54 Sudoeste 0 -- -- 83
2021-02-09 11:00:00 9 25 Sur 56 Sur 0 -- -- 84
2021-02-09 10:00:00 7.9 18 Sur 35 Sur 0.2 -- -- 92
2021-02-09 09:00:00 7.5 13 Sur 28 Sur 0 -- -- 91
2021-02-09 08:00:00 6.8 13 Sur 26 Sur 0 -- -- 94
2021-02-09 07:00:00 6.3 9 Sudoeste 19 Sur 0.2 -- -- 94
2021-02-09 06:00:00 6.2 10 Sudoeste 21 Sudoeste 0.6 -- -- 93
2021-02-09 05:00:00 6.3 7 Sudoeste 23 Sudoeste 1.4 -- -- 93
2021-02-09 04:00:00 6.3 14 Sudoeste 28 Sudoeste 0.8 -- -- 92
2021-02-09 03:00:00 6.3 20 Sudoeste 33 Sudoeste 0.4 -- -- 89
2021-02-09 02:00:00 6.7 14 Sudoeste 38 Sudoeste 0 -- -- 87
2021-02-09 01:00:00 6.7 15 Sudoeste 41 Sudoeste 0 -- -- 86
2021-02-09 00:00:00 7.1 24 Sudoeste 40 Sudoeste 0 -- -- 86
2021-02-08 23:00:00 7.3 14 Sudoeste 39 Sudoeste 0.2 -- -- 85
2021-02-08 22:00:00 7.7 22 Sudoeste 32 Sudoeste 0 -- -- 86
2021-02-08 21:00:00 8.2 16 Sudoeste 27 Sudoeste 0.4 -- -- 89
2021-02-08 20:00:00 7.7 13 Oeste 22 Oeste 1.2 -- -- 94
2021-02-08 19:00:00 7.5 7 Oeste 22 Noroeste 2.8 -- -- 91
2021-02-08 18:00:00 8.6 10 Noroeste 40 Oeste 1.2 -- -- 87
2021-02-08 17:00:00 9.8 19 Sudoeste 43 Sudoeste 0 -- -- 78
2021-02-08 16:00:00 9.4 19 Sudoeste 46 Sudoeste 0.4 -- -- 79
2021-02-08 15:00:00 9.9 21 Oeste 39 Sudoeste 0.6 -- -- 77
2021-02-08 14:00:00 9.8 25 Sudoeste 43 Sudoeste 0 -- -- 78
2021-02-08 13:00:00 9.3 28 Sudoeste 40 Sudoeste 0 -- -- 80
2021-02-08 12:00:00 9.2 25 Sudoeste 40 Sudoeste 0 -- -- 81
2021-02-08 11:00:00 8.2 23 Sudoeste 32 Sudoeste 0 -- -- 87
2021-02-08 10:00:00 7.7 22 Sudoeste 32 Sudoeste 0 -- -- 92
2021-02-08 09:00:00 6.4 13 Sudoeste 23 Sudoeste 0 -- -- 95
2021-02-08 08:00:00 6.5 8 Sudoeste 19 Sudoeste 0 -- -- 94
2021-02-08 07:00:00 6.8 9 Sudoeste 27 Sudoeste 1.4 -- -- 94
2021-02-08 06:00:00 6.8 9 Sudoeste 21 Sudoeste 1.8 -- -- 94
2021-02-08 05:00:00 6.6 6 Sudoeste 17 Sudoeste 1.2 -- -- 95
2021-02-08 04:00:00 6.5 10 Sudoeste 21 Sudoeste 0.8 -- -- 94
2021-02-08 03:00:00 6.5 12 Sudoeste 25 Sudoeste 0.8 -- -- 93
2021-02-08 02:00:00 6.5 14 Sudoeste 28 Sudoeste 0 -- -- 91
2021-02-08 01:00:00 6.4 13 Sudoeste 27 Sudoeste 0 -- -- 93
2021-02-08 00:00:00 6.1 17 Sudoeste 31 Sudoeste 0 -- -- 91
2021-02-07 23:00:00 5.8 16 Sudoeste 31 Sudoeste 0 -- -- 91
2021-02-07 22:00:00 5.9 17 Sudoeste 32 Sudoeste 0.4 -- -- 91
2021-02-07 21:00:00 6.6 22 Sudoeste 35 Sudoeste 0.4 -- -- 91
2021-02-07 20:00:00 8.1 22 Sudoeste 36 Sudoeste 0 -- -- 83
2021-02-07 19:00:00 9 18 Sudoeste 30 Sudoeste 0 -- -- 76
2021-02-07 18:00:00 9.4 18 Sudoeste 34 Sudoeste 0 -- -- 73
2021-02-07 17:00:00 10.3 19 Sudoeste 31 Sudoeste 0 -- -- 69
2021-02-07 16:00:00 11.6 13 Oeste 27 Oeste 0 -- -- 58
2021-02-07 15:00:00 11.9 12 Oeste 27 Sudoeste 0 -- -- 53
2021-02-07 14:00:00 10 4 Sudoeste 13 Sudoeste 0 -- -- 66
2021-02-07 13:00:00 9.5 5 Oeste 24 Sudoeste 0 -- -- 64
2021-02-07 12:00:00 9.1 6 Oeste 11 Sudoeste 0 -- -- 66
2021-02-07 11:00:00 7.7 0 Calma 5 Sudeste 0 -- -- 71
2021-02-07 10:00:00 5.8 0 Calma 4 Noroeste 0 -- -- 85
2021-02-07 09:00:00 5.1 4 Norte 9 Nordeste 0 -- -- 91
2021-02-07 08:00:00 5.1 3 Nordeste 8 Este 0 -- -- 94
2021-02-07 07:00:00 5.1 0 Calma 5 Este 0 -- -- 94
2021-02-07 06:00:00 4.8 3 Sudoeste 4 Sudoeste 0 -- -- 94
2021-02-07 05:00:00 4.8 3 Sudoeste 5 Oeste 0 -- -- 93
2021-02-07 04:00:00 5.1 2 Norte 8 Este 0 -- -- 92
2021-02-07 03:00:00 6.3 8 Este 18 Nordeste 0 -- -- 87
2021-02-07 02:00:00 7.1 10 Nordeste 17 Nordeste 0 -- -- 86
2021-02-07 01:00:00 7.3 6 Nordeste 11 Nordeste 0.2 -- -- 89
2021-02-07 00:00:00 7.7 8 Nordeste 18 Nordeste 0 -- -- 87
2021-02-06 23:00:00 7.9 5 Nordeste 9 Nordeste 0 -- -- 96
2021-02-06 22:00:00 7.3 4 Nordeste 7 Nordeste 0 -- -- 95
2021-02-06 21:00:00 7.3 2 Este 6 Oeste 0 -- -- 94
2021-02-06 20:00:00 7.6 2 Sudoeste 7 Sudoeste 0 -- -- 93
2021-02-06 19:00:00 7.9 4 Sudeste 11 Oeste 3.6 -- -- 91
2021-02-06 18:00:00 8.8 14 Oeste 24 Oeste 5.4 -- -- 86
2021-02-06 17:00:00 10.4 10 Sur 27 Sur 0 -- -- 77
2021-02-06 16:00:00 11.7 9 Sudoeste 20 Sudoeste 0 -- -- 74
2021-02-06 15:00:00 13.6 10 Sudoeste 21 Sudoeste 0 -- -- 71
2021-02-06 14:00:00 12.2 9 Sudoeste 21 Sudoeste 0 -- -- 73
2021-02-06 13:00:00 10.3 6 Sudoeste 15 Sudoeste 0 -- -- 84
2021-02-06 12:00:00 9.9 8 Sudoeste 22 Sudoeste 0 -- -- 89
2021-02-06 11:00:00 10.6 11 Sudoeste 24 Sur 0 -- -- 82
2021-02-06 10:00:00 9.3 12 Sur 18 Sur 0 -- -- 88
2021-02-06 09:00:00 8.8 9 Sur 17 Sur 0 -- -- 85
2021-02-06 08:00:00 8.6 6 Sur 17 Sur 0 -- -- 85
2021-02-06 07:00:00 8.9 7 Sur 22 Sur 0 -- -- 85
2021-02-06 06:00:00 9.2 8 Sur 18 Sur 0 -- -- 85
2021-02-06 05:00:00 9.4 9 Sur 17 Sur 0 -- -- 87
2021-02-06 04:00:00 9.3 4 Sudoeste 21 Sur 0 -- -- 88
2021-02-06 03:00:00 9.9 13 Sur 25 Sudeste 0 -- -- 85
2021-02-06 02:00:00 10.2 13 Sur 21 Sudeste 0 -- -- 83
2021-02-06 01:00:00 10.2 12 Sur 33 Sudeste 0 -- -- 82
2021-02-06 00:00:00 10.4 16 Sudeste 28 Sur 0.2 -- -- 83
2021-02-05 23:00:00 10.3 8 Sudeste 29 Sur 1.4 -- -- 87
2021-02-05 22:00:00 11.1 18 Sur 28 Sudeste 1.4 -- -- 82
2021-02-05 21:00:00 12.3 3 Sudoeste 12 Sudoeste 0 -- -- 71
2021-02-05 20:00:00 12.8 2 Sudoeste 14 Sur 0 -- -- 68
2021-02-05 19:00:00 13.9 3 Sur 8 Sudoeste 0 -- -- 64
2021-02-05 18:00:00 15.5 3 Sudoeste 10 Sur 0 -- -- 60
2021-02-05 17:00:00 16.8 8 Sur 17 Sur 0 -- -- 55
2021-02-05 16:00:00 17.2 12 Sur 22 Sur 0 -- -- 54
2021-02-05 15:00:00 17.9 10 Sudeste 21 Sur 0 -- -- 53
2021-02-05 14:00:00 17.1 12 Sudeste 24 Sudeste 0 -- -- 54
2021-02-05 13:00:00 16.6 7 Sudeste 21 Sudeste 0 -- -- 54
2021-02-05 12:00:00 13.8 3 Este 11 Nordeste 0 -- -- 66
2021-02-05 11:00:00 11.1 8 Nordeste 16 Nordeste 0 -- -- 76
2021-02-05 10:00:00 8.6 10 Nordeste 19 Nordeste 0 -- -- 84
2021-02-05 09:00:00 6.9 9 Este 18 Este 0 -- -- 87
2021-02-05 08:00:00 6.6 9 Este 19 Este 0 -- -- 89
2021-02-05 07:00:00 6.7 14 Este 22 Nordeste 0 -- -- 90
2021-02-05 06:00:00 7.2 14 Nordeste 24 Nordeste 0 -- -- 89
2021-02-05 05:00:00 7.4 7 Nordeste 12 Nordeste 0 -- -- 90
2021-02-05 04:00:00 7.7 9 Nordeste 18 Este 0 -- -- 90
2021-02-05 03:00:00 8.3 9 Este 17 Nordeste 0 -- -- 88
2021-02-05 02:00:00 8.7 13 Nordeste 22 Nordeste 0 -- -- 86
2021-02-05 01:00:00 8.6 12 Nordeste 19 Este 0 -- -- 88
2021-02-05 00:00:00 9.4 8 Nordeste 19 Este 0 -- -- 84
2021-02-04 23:00:00 9.6 6 Norte 9 Norte 0 -- -- 83
2021-02-04 22:00:00 9.6 3 Norte 9 Nordeste 0 -- -- 81
2021-02-04 21:00:00 8.9 2 Nordeste 6 Nordeste 0 -- -- 86
2021-02-04 20:00:00 9.5 3 Nordeste 3 Este 0 -- -- 83
2021-02-04 19:00:00 11.6 2 Sudeste 7 Sudoeste 0 -- -- 76
2021-02-04 18:00:00 13.6 7 Oeste 17 Sudoeste 0 -- -- 69
2021-02-04 17:00:00 14 11 Sudoeste 27 Sudoeste 0 -- -- 68
2021-02-04 16:00:00 14.1 17 Sudoeste 30 Oeste 0 -- -- 67
2021-02-04 15:00:00 14.6 19 Sudoeste 30 Sudoeste 0 -- -- 69
2021-02-04 14:00:00 14.9 6 Sudoeste 20 Sur 0 -- -- 67
2021-02-04 13:00:00 13.7 8 Sur 19 Sudoeste 0 -- -- 72
2021-02-04 12:00:00 12.9 8 Sudeste 17 Sudeste 0 -- -- 78
2021-02-04 11:00:00 12.1 10 Sudeste 15 Sudeste 0 -- -- 81
2021-02-04 10:00:00 10.3 3 Sudeste 6 Este 0 -- -- 88
2021-02-04 09:00:00 10 0 Calma 6 Sur 0 -- -- 90
2021-02-04 08:00:00 9.9 4 Sur 8 Sur 0 -- -- 91
2021-02-04 07:00:00 10 5 Sur 10 Sur 0 -- -- 91
2021-02-04 06:00:00 10.3 0 Calma 9 Sudoeste 0 -- -- 91
2021-02-04 05:00:00 10.7 4 Sur 17 Sudoeste 0 -- -- 88
2021-02-04 04:00:00 11.1 3 Sudoeste 12 Sur 0 -- -- 85
2021-02-04 03:00:00 11.3 9 Sudoeste 17 Sudoeste 0 -- -- 85
2021-02-04 02:00:00 11.4 4 Sudoeste 18 Sur 0 -- -- 83
2021-02-04 01:00:00 11.6 10 Sur 18 Sur 0 -- -- 84
2021-02-04 00:00:00 10.6 5 Sur 17 Sur 0 -- -- 92
2021-02-03 23:00:00 9.4 2 Sudeste 5 Sur 0 -- -- 94
2021-02-03 22:00:00 9.9 0 Calma 8 Este 0 -- -- 93
2021-02-03 21:00:00 10.7 5 Nordeste 7 Nordeste 0 -- -- 91
2021-02-03 20:00:00 11.6 0 Calma 11 Oeste 0 -- -- 88
2021-02-03 19:00:00 12.1 10 Oeste 17 Sudoeste 0 -- -- 86
2021-02-03 18:00:00 12.7 7 Sudoeste 17 Oeste 0 -- -- 82
2021-02-03 17:00:00 12.8 12 Sudoeste 19 Sudoeste 0 -- -- 81
2021-02-03 16:00:00 12.6 8 Oeste 19 Oeste 0 -- -- 82
2021-02-03 15:00:00 11.8 0 Calma 9 Sudoeste 0 -- -- 87
2021-02-03 14:00:00 11.4 6 Sudoeste 18 Sudoeste 0 -- -- 90
2021-02-03 13:00:00 11.8 10 Sudoeste 28 Sudoeste 0 -- -- 85
2021-02-03 12:00:00 11.2 11 Sudoeste 20 Sudoeste 0 -- -- 87
2021-02-03 11:00:00 11.1 11 Sudoeste 23 Sur 0 -- -- 86
2021-02-03 10:00:00 9.9 4 Sudoeste 8 Sudoeste 0 -- -- 85
2021-02-03 09:00:00 9.6 5 Sudoeste 14 Sudoeste 0 -- -- 83
2021-02-03 08:00:00 9.6 5 Sudoeste 21 Sur 0 -- -- 83
2021-02-03 07:00:00 9.3 10 Sur 23 Sudoeste 0 -- -- 82
2021-02-03 06:00:00 9.1 9 Sudoeste 28 Sur 0 -- -- 83
2021-02-03 05:00:00 8.4 8 Sudoeste 13 Sudoeste 0 -- -- 86
2021-02-03 04:00:00 8.3 7 Sudoeste 17 Sudoeste 0 -- -- 84
2021-02-03 03:00:00 9 9 Sudoeste 24 Sudoeste 0 -- -- 81
2021-02-03 02:00:00 9 10 Sudoeste 20 Sudoeste 0 -- -- 81
2021-02-03 01:00:00 9.2 9 Sudoeste 22 Sudoeste 0 -- -- 82
2021-02-03 00:00:00 10.5 14 Sudoeste 24 Sudoeste 0 -- -- 80
2021-02-02 23:00:00 10.9 14 Sudoeste 25 Sudoeste 0 -- -- 85
2021-02-02 22:00:00 11.3 13 Sudoeste 25 Sudoeste 0 -- -- 86
2021-02-02 21:00:00 11.7 9 Sudoeste 17 Sudoeste 0 -- -- 82
2021-02-02 20:00:00 12.1 10 Sudoeste 22 Sudoeste 0 -- -- 77
2021-02-02 19:00:00 12.6 13 Sudoeste 30 Sudoeste 0 -- -- 71
2021-02-02 18:00:00 12.8 14 Sudoeste 25 Sudoeste 0 -- -- 75
2021-02-02 17:00:00 12.8 14 Sudoeste 26 Sudoeste 0 -- -- 78
2021-02-02 16:00:00 12.9 15 Sudoeste 32 Sudoeste 0 -- -- 79
2021-02-02 15:00:00 12.7 12 Sudoeste 24 Sudoeste 0 -- -- 82
2021-02-02 14:00:00 11.7 17 Sudoeste 24 Sudoeste 0 -- -- 90
2021-02-02 13:00:00 11.9 13 Sudoeste 22 Sudoeste 0 -- -- 88
2021-02-02 12:00:00 11.5 14 Sudoeste 22 Sudoeste 0 -- -- 91
2021-02-02 11:00:00 10 11 Sudoeste 21 Sur 0 -- -- 95
2021-02-02 10:00:00 9.7 11 Sudoeste 19 Sudoeste 0 -- -- 93
2021-02-02 09:00:00 9.3 7 Sudoeste 12 Sudoeste 0 -- -- 93
2021-02-02 08:00:00 9.2 6 Sudoeste 19 Sudoeste 0 -- -- 93
2021-02-02 07:00:00 8.9 9 Sudoeste 14 Sudoeste 0 -- -- 93
2021-02-02 06:00:00 8.8 6 Sudoeste 14 Sudoeste 0 -- -- 93
2021-02-02 05:00:00 8.7 8 Sudoeste 16 Sudoeste 0 -- -- 93
2021-02-02 04:00:00 8.2 4 Sudoeste 10 Sudoeste 0 -- -- 94
2021-02-02 03:00:00 7.4 0 Calma 8 Sudoeste 0 -- -- 92
2021-02-02 02:00:00 8 5 Sudoeste 14 Sur 0 -- -- 91
2021-02-02 01:00:00 8.8 8 Sudoeste 19 Sudoeste 0 -- -- 91
2021-02-02 00:00:00 9 9 Sur 20 Sudoeste 0 -- -- 89
2021-02-01 23:00:00 8.9 6 Sudoeste 15 Sudoeste 0 -- -- 90
2021-02-01 22:00:00 9.3 3 Sur 23 Sudoeste 0 -- -- 86
2021-02-01 21:00:00 10.3 13 Sudoeste 26 Sudoeste 0 -- -- 84
2021-02-01 20:00:00 11.1 15 Sudoeste 29 Sudoeste 0 -- -- 81
2021-02-01 19:00:00 12.3 18 Sudoeste 33 Sudoeste 0 -- -- 75
2021-02-01 18:00:00 14.8 21 Oeste 36 Oeste 0 -- -- 55
2021-02-01 17:00:00 16.3 27 Oeste 39 Oeste 0 -- -- 49
2021-02-01 16:00:00 16.9 23 Oeste 35 Oeste 0 -- -- 51
2021-02-01 15:00:00 17.1 17 Sudoeste 28 Sudoeste 0 -- -- 61
2021-02-01 14:00:00 16.5 15 Sudoeste 26 Sudoeste 0 -- -- 60
2021-02-01 13:00:00 15.4 18 Sudoeste 35 Sudoeste 0 -- -- 64
2021-02-01 12:00:00 13.7 13 Sudoeste 31 Sur 0 -- -- 67
2021-02-01 11:00:00 12.6 16 Sur 33 Sudoeste 0 -- -- 71
2021-02-01 10:00:00 10.9 15 Sudoeste 27 Sudoeste 0 -- -- 73
2021-02-01 09:00:00 9 15 Sudoeste 26 Sudoeste 0 -- -- 78
2021-02-01 08:00:00 9.1 9 Sudoeste 23 Oeste 0 -- -- 73
2021-02-01 07:00:00 9.9 14 Oeste 26 Oeste 0 -- -- 69
2021-02-01 06:00:00 9.9 13 Oeste 34 Oeste 0 -- -- 69
2021-02-01 05:00:00 9.8 10 Sudoeste 19 Sudoeste 0 -- -- 72
2021-02-01 04:00:00 9.6 6 Sur 32 Oeste 0 -- -- 84
2021-02-01 03:00:00 11.4 23 Oeste 53 Sudoeste 0 -- -- 66
2021-02-01 02:00:00 11.7 30 Oeste 46 Sudoeste 0 -- -- 66
2021-02-01 01:00:00 11.2 19 Sudoeste 52 Oeste 0 -- -- 80
2021-02-01 00:00:00 11.5 17 Sudoeste 35 Sudoeste 0 -- -- 80
2021-01-31 23:00:00 11 14 Sudoeste 29 Sudoeste 0 -- -- 88
2021-01-31 22:00:00 11.5 19 Sudoeste 42 Sudoeste 0 -- -- 88
2021-01-31 21:00:00 11.7 18 Sudoeste 35 Sudoeste 0 -- -- 90
2021-01-31 20:00:00 11.8 17 Sudoeste 39 Sudoeste 0 -- -- 89
2021-01-31 19:00:00 12 23 Sudoeste 40 Sudoeste 0 -- -- 87
2021-01-31 18:00:00 12.6 21 Sudoeste 45 Sudoeste 0 -- -- 82
2021-01-31 17:00:00 12.9 31 Sudoeste 52 Sudoeste 0 -- -- 81
2021-01-31 16:00:00 12.5 22 Sudoeste 39 Sudoeste 0 -- -- 83
2021-01-31 15:00:00 11.9 21 Sudoeste 34 Sudoeste 0 -- -- 85
2021-01-31 14:00:00 11.4 19 Sudoeste 33 Sur 0 -- -- 83
2021-01-31 13:00:00 11.5 15 Sudoeste 43 Sudoeste 0 -- -- 81
2021-01-31 12:00:00 11.2 15 Sudoeste 31 Sudoeste 0 -- -- 78
2021-01-31 11:00:00 10.5 22 Sudoeste 31 Sudoeste 0 -- -- 76
2021-01-31 10:00:00 9.7 13 Sudoeste 25 Sudoeste 0 -- -- 75
2021-01-31 09:00:00 8.4 17 Sudoeste 26 Sudoeste 0 -- -- 73
2021-01-31 08:00:00 7.8 12 Oeste 24 Oeste 0 -- -- 71
2021-01-31 07:00:00 8.3 12 Oeste 21 Oeste 0 -- -- 68
2021-01-31 06:00:00 8.3 13 Oeste 30 Oeste 0 -- -- 67
2021-01-31 05:00:00 8.9 19 Oeste 35 Oeste 0 -- -- 64
2021-01-31 04:00:00 8.8 15 Oeste 38 Oeste 0 -- -- 67
2021-01-31 03:00:00 9.1 21 Sudoeste 34 Oeste 0 -- -- 67
2021-01-31 02:00:00 9.3 20 Oeste 31 Oeste 0 -- -- 66
2021-01-31 01:00:00 9.2 23 Oeste 35 Oeste 0 -- -- 65
2021-01-31 00:00:00 9 20 Oeste 41 Oeste 0 -- -- 65